sensor_id;sensor_type;location;lat;lon;timestamp;pressure;altitude;pressure_sealevel;temperature;humidity
44751;BME280;30477;48.224;11.470;2023-06-04T00:01:00;96019.34;;;14.94;54.43
44751;BME280;30477;48.224;11.470;2023-06-04T00:03:26;96023.25;;;14.90;54.49
44751;BME280;30477;48.224;11.470;2023-06-04T00:05:51;96021.66;;;14.89;54.40
44751;BME280;30477;48.224;11.470;2023-06-04T00:08:16;96023.78;;;14.86;54.71
44751;BME280;30477;48.224;11.470;2023-06-04T00:10:42;96017.59;;;14.87;54.80
44751;BME280;30477;48.224;11.470;2023-06-04T00:13:07;96029.78;;;14.94;54.80
44751;BME280;30477;48.224;11.470;2023-06-04T00:15:33;96024.41;;;14.88;54.81
44751;BME280;30477;48.224;11.470;2023-06-04T00:17:58;96022.94;;;14.93;54.91
44751;BME280;30477;48.224;11.470;2023-06-04T00:20:24;96018.72;;;14.84;54.49
44751;BME280;30477;48.224;11.470;2023-06-04T00:22:50;96017.28;;;14.81;55.00
44751;BME280;30477;48.224;11.470;2023-06-04T00:25:15;96020.03;;;14.80;54.86
44751;BME280;30477;48.224;11.470;2023-06-04T00:27:41;96011.56;;;14.78;54.78
44751;BME280;30477;48.224;11.470;2023-06-04T00:30:06;96019.72;;;14.75;55.04
44751;BME280;30477;48.224;11.470;2023-06-04T00:32:32;96019.91;;;14.65;55.04
44751;BME280;30477;48.224;11.470;2023-06-04T00:34:57;96025.81;;;14.43;55.31
44751;BME280;30477;48.224;11.470;2023-06-04T00:37:27;96022.34;;;14.42;55.72
44751;BME280;30477;48.224;11.470;2023-06-04T00:39:52;96023.34;;;14.41;55.75
44751;BME280;30477;48.224;11.470;2023-06-04T00:42:18;96026.91;;;14.40;55.64
44751;BME280;30477;48.224;11.470;2023-06-04T00:44:43;96019.91;;;14.49;55.83
44751;BME280;30477;48.224;11.470;2023-06-04T00:47:15;96009.03;;;14.45;55.30
44751;BME280;30477;48.224;11.470;2023-06-04T00:49:41;96014.03;;;14.47;55.93
44751;BME280;30477;48.224;11.470;2023-06-04T00:52:08;96020.25;;;14.46;55.46
44751;BME280;30477;48.224;11.470;2023-06-04T00:54:34;96024.00;;;14.43;55.62
44751;BME280;30477;48.224;11.470;2023-06-04T00:57:00;96025.31;;;14.39;55.45
44751;BME280;30477;48.224;11.470;2023-06-04T00:59:26;96022.72;;;14.31;55.59
44751;BME280;30477;48.224;11.470;2023-06-04T01:02:09;96022.88;;;14.29;55.47
44751;BME280;30477;48.224;11.470;2023-06-04T01:04:48;96021.75;;;14.15;55.85
44751;BME280;30477;48.224;11.470;2023-06-04T01:07:16;96024.66;;;14.12;56.20
44751;BME280;30477;48.224;11.470;2023-06-04T01:09:41;96027.09;;;14.06;56.21
44751;BME280;30477;48.224;11.470;2023-06-04T01:12:10;96023.03;;;13.95;56.59
44751;BME280;30477;48.224;11.470;2023-06-04T01:14:36;96027.88;;;13.81;56.55
44751;BME280;30477;48.224;11.470;2023-06-04T01:17:02;96026.59;;;13.86;56.90
44751;BME280;30477;48.224;11.470;2023-06-04T01:25:41;96020.25;;;14.05;56.91
44751;BME280;30477;48.224;11.470;2023-06-04T01:28:10;96032.31;;;13.97;56.89
44751;BME280;30477;48.224;11.470;2023-06-04T01:30:38;96028.72;;;13.90;57.44
44751;BME280;30477;48.224;11.470;2023-06-04T01:33:09;96021.09;;;13.89;57.22
44751;BME280;30477;48.224;11.470;2023-06-04T01:35:35;96022.69;;;13.81;57.28
44751;BME280;30477;48.224;11.470;2023-06-04T01:38:00;96030.16;;;13.76;57.25
44751;BME280;30477;48.224;11.470;2023-06-04T01:40:25;96025.44;;;13.72;57.50
44751;BME280;30477;48.224;11.470;2023-06-04T01:42:51;96029.84;;;13.71;57.30
44751;BME280;30477;48.224;11.470;2023-06-04T01:45:17;96035.31;;;13.52;57.39
44751;BME280;30477;48.224;11.470;2023-06-04T01:47:42;96045.53;;;13.45;57.70
44751;BME280;30477;48.224;11.470;2023-06-04T01:50:08;96038.25;;;13.49;58.33
44751;BME280;30477;48.224;11.470;2023-06-04T01:52:38;96037.28;;;13.58;58.25
44751;BME280;30477;48.224;11.470;2023-06-04T01:55:08;96043.63;;;13.64;57.95
44751;BME280;30477;48.224;11.470;2023-06-04T01:57:35;96051.28;;;13.57;57.97
44751;BME280;30477;48.224;11.470;2023-06-04T02:00:08;96049.31;;;13.51;57.75
44751;BME280;30477;48.224;11.470;2023-06-04T02:02:35;96047.00;;;13.48;57.64
44751;BME280;30477;48.224;11.470;2023-06-04T02:05:05;96042.44;;;13.42;58.09
44751;BME280;30477;48.224;11.470;2023-06-04T02:07:33;96038.88;;;13.43;58.19
44751;BME280;30477;48.224;11.470;2023-06-04T02:09:59;96053.00;;;13.40;58.17
44751;BME280;30477;48.224;11.470;2023-06-04T02:12:25;96044.38;;;13.39;58.55
44751;BME280;30477;48.224;11.470;2023-06-04T02:14:50;96046.53;;;13.44;58.38
44751;BME280;30477;48.224;11.470;2023-06-04T02:17:15;96049.13;;;13.44;57.89
44751;BME280;30477;48.224;11.470;2023-06-04T02:19:42;96049.16;;;13.52;58.32
44751;BME280;30477;48.224;11.470;2023-06-04T02:22:12;96047.22;;;13.54;57.91
44751;BME280;30477;48.224;11.470;2023-06-04T02:24:39;96050.28;;;13.58;57.74
44751;BME280;30477;48.224;11.470;2023-06-04T02:27:10;96057.28;;;13.57;57.63
44751;BME280;30477;48.224;11.470;2023-06-04T02:29:37;96049.78;;;13.46;57.86
44751;BME280;30477;48.224;11.470;2023-06-04T02:32:03;96045.69;;;13.44;57.94
44751;BME280;30477;48.224;11.470;2023-06-04T02:34:28;96050.88;;;13.35;57.75
44751;BME280;30477;48.224;11.470;2023-06-04T02:36:54;96048.25;;;13.35;58.05
44751;BME280;30477;48.224;11.470;2023-06-04T02:39:19;96046.31;;;13.37;58.06
44751;BME280;30477;48.224;11.470;2023-06-04T02:41:45;96057.03;;;13.34;57.92
44751;BME280;30477;48.224;11.470;2023-06-04T02:44:11;96049.09;;;13.36;58.02
44751;BME280;30477;48.224;11.470;2023-06-04T02:46:37;96051.88;;;13.43;57.87
44751;BME280;30477;48.224;11.470;2023-06-04T02:49:03;96050.88;;;13.44;57.64
44751;BME280;30477;48.224;11.470;2023-06-04T02:51:28;96061.25;;;13.35;57.64
44751;BME280;30477;48.224;11.470;2023-06-04T02:53:54;96053.00;;;13.40;57.86
44751;BME280;30477;48.224;11.470;2023-06-04T02:56:20;96059.03;;;13.49;57.53
44751;BME280;30477;48.224;11.470;2023-06-04T02:58:54;96057.03;;;13.34;57.75
44751;BME280;30477;48.224;11.470;2023-06-04T03:01:24;96061.91;;;13.29;57.67
44751;BME280;30477;48.224;11.470;2023-06-04T03:03:50;96062.47;;;13.15;57.96
44751;BME280;30477;48.224;11.470;2023-06-04T03:06:17;96067.31;;;13.10;58.42
44751;BME280;30477;48.224;11.470;2023-06-04T03:08:43;96064.56;;;13.11;58.57
44751;BME280;30477;48.224;11.470;2023-06-04T03:11:09;96061.09;;;13.03;58.51
44751;BME280;30477;48.224;11.470;2023-06-04T03:13:35;96063.44;;;12.79;58.50
44751;BME280;30477;48.224;11.470;2023-06-04T03:16:04;96063.53;;;12.70;59.30
44751;BME280;30477;48.224;11.470;2023-06-04T03:18:35;96071.69;;;12.75;59.37
44751;BME280;30477;48.224;11.470;2023-06-04T03:21:02;96073.63;;;12.73;59.45
44751;BME280;30477;48.224;11.470;2023-06-04T03:23:27;96065.44;;;12.68;59.68
44751;BME280;30477;48.224;11.470;2023-06-04T03:25:53;96067.75;;;12.71;59.76
44751;BME280;30477;48.224;11.470;2023-06-04T03:28:18;96085.41;;;12.67;59.65
44751;BME280;30477;48.224;11.470;2023-06-04T03:30:43;96078.50;;;12.76;59.49
44751;BME280;30477;48.224;11.470;2023-06-04T03:33:09;96084.50;;;12.76;59.34
44751;BME280;30477;48.224;11.470;2023-06-04T03:35:35;96085.81;;;12.80;58.75
44751;BME280;30477;48.224;11.470;2023-06-04T03:38:00;96093.47;;;12.82;58.91
44751;BME280;30477;48.224;11.470;2023-06-04T03:40:25;96096.31;;;12.97;58.85
44751;BME280;30477;48.224;11.470;2023-06-04T03:42:51;96095.84;;;13.02;58.30
44751;BME280;30477;48.224;11.470;2023-06-04T03:45:16;96086.84;;;12.88;58.32
44751;BME280;30477;48.224;11.470;2023-06-04T03:47:42;96091.25;;;12.87;58.58
44751;BME280;30477;48.224;11.470;2023-06-04T03:50:07;96098.84;;;12.89;58.41
44751;BME280;30477;48.224;11.470;2023-06-04T03:52:33;96088.66;;;12.95;58.30
44751;BME280;30477;48.224;11.470;2023-06-04T03:54:58;96095.84;;;13.02;58.11
44751;BME280;30477;48.224;11.470;2023-06-04T03:57:24;96095.22;;;13.08;57.93
44751;BME280;30477;48.224;11.470;2023-06-04T03:59:49;96091.16;;;13.05;57.79
44751;BME280;30477;48.224;11.470;2023-06-04T04:02:15;96089.06;;;13.09;57.72
44751;BME280;30477;48.224;11.470;2023-06-04T04:04:42;96088.47;;;13.15;57.42
44751;BME280;30477;48.224;11.470;2023-06-04T04:07:07;96091.81;;;13.33;57.11
44751;BME280;30477;48.224;11.470;2023-06-04T04:09:33;96090.75;;;13.52;56.81
44751;BME280;30477;48.224;11.470;2023-06-04T04:11:59;96086.72;;;13.66;56.27
44751;BME280;30477;48.224;11.470;2023-06-04T04:14:25;96092.28;;;13.79;56.22
44751;BME280;30477;48.224;11.470;2023-06-04T04:16:50;96091.66;;;14.02;55.69
44751;BME280;30477;48.224;11.470;2023-06-04T04:19:15;96090.38;;;14.14;55.45
44751;BME280;30477;48.224;11.470;2023-06-04T04:21:41;96086.66;;;14.41;55.58
44751;BME280;30477;48.224;11.470;2023-06-04T04:24:07;96091.22;;;14.72;54.17
44751;BME280;30477;48.224;11.470;2023-06-04T04:26:32;96094.09;;;15.02;54.06
44751;BME280;30477;48.224;11.470;2023-06-04T04:28:57;96096.81;;;15.25;53.16
44751;BME280;30477;48.224;11.470;2023-06-04T04:31:26;96102.91;;;15.49;52.53
44751;BME280;30477;48.224;11.470;2023-06-04T04:33:51;96109.69;;;15.58;52.47
44751;BME280;30477;48.224;11.470;2023-06-04T04:36:17;96105.72;;;15.78;52.35
44751;BME280;30477;48.224;11.470;2023-06-04T04:38:44;96098.81;;;15.94;51.44
44751;BME280;30477;48.224;11.470;2023-06-04T04:41:10;96104.84;;;16.17;51.33
44751;BME280;30477;48.224;11.470;2023-06-04T04:43:37;96110.47;;;16.29;50.49
44751;BME280;30477;48.224;11.470;2023-06-04T04:46:05;96109.81;;;16.50;49.68
44751;BME280;30477;48.224;11.470;2023-06-04T04:48:31;96108.91;;;16.43;49.20
44751;BME280;30477;48.224;11.470;2023-06-04T04:50:57;96116.19;;;16.71;49.14
44751;BME280;30477;48.224;11.470;2023-06-04T04:53:22;96112.44;;;16.88;48.39
44751;BME280;30477;48.224;11.470;2023-06-04T04:55:48;96108.22;;;16.87;47.43
44751;BME280;30477;48.224;11.470;2023-06-04T04:58:13;96115.13;;;16.80;47.24
44751;BME280;30477;48.224;11.470;2023-06-04T05:00:39;96116.91;;;17.02;47.70
44751;BME280;30477;48.224;11.470;2023-06-04T05:03:04;96114.03;;;17.27;47.25
44751;BME280;30477;48.224;11.470;2023-06-04T05:05:30;96113.28;;;17.48;46.41
44751;BME280;30477;48.224;11.470;2023-06-04T05:07:55;96124.13;;;17.60;45.92
44751;BME280;30477;48.224;11.470;2023-06-04T05:10:20;96128.53;;;17.44;45.69
44751;BME280;30477;48.224;11.470;2023-06-04T05:12:57;96128.66;;;18.02;45.42
44751;BME280;30477;48.224;11.470;2023-06-04T05:15:23;96126.34;;;18.29;44.75
44751;BME280;30477;48.224;11.470;2023-06-04T05:17:49;96133.63;;;18.55;43.20
44751;BME280;30477;48.224;11.470;2023-06-04T05:20:17;96133.44;;;18.57;43.04
44751;BME280;30477;48.224;11.470;2023-06-04T05:22:42;96133.88;;;18.39;42.68
44751;BME280;30477;48.224;11.470;2023-06-04T05:25:11;96147.59;;;18.19;43.03
44751;BME280;30477;48.224;11.470;2023-06-04T05:27:37;96135.22;;;18.78;42.82
44751;BME280;30477;48.224;11.470;2023-06-04T05:30:06;96139.13;;;18.82;42.05
44751;BME280;30477;48.224;11.470;2023-06-04T05:32:32;96136.53;;;19.17;42.27
44751;BME280;30477;48.224;11.470;2023-06-04T05:34:58;96138.50;;;19.36;40.98
44751;BME280;30477;48.224;11.470;2023-06-04T05:37:24;96143.06;;;19.27;40.07
44751;BME280;30477;48.224;11.470;2023-06-04T05:39:55;96137.78;;;19.56;40.26
44751;BME280;30477;48.224;11.470;2023-06-04T05:42:21;96144.38;;;19.80;39.45
44751;BME280;30477;48.224;11.470;2023-06-04T05:44:46;96144.66;;;19.57;39.43
44751;BME280;30477;48.224;11.470;2023-06-04T05:47:12;96139.25;;;20.13;39.54
44751;BME280;30477;48.224;11.470;2023-06-04T05:49:37;96139.50;;;20.45;38.56
44751;BME280;30477;48.224;11.470;2023-06-04T05:52:03;96142.97;;;20.45;37.90
44751;BME280;30477;48.224;11.470;2023-06-04T05:54:29;96142.63;;;20.68;37.98
44751;BME280;30477;48.224;11.470;2023-06-04T05:56:55;96146.25;;;20.94;37.51
44751;BME280;30477;48.224;11.470;2023-06-04T05:59:20;96149.09;;;20.86;36.60
44751;BME280;30477;48.224;11.470;2023-06-04T06:01:45;96143.19;;;21.04;35.61
44751;BME280;30477;48.224;11.470;2023-06-04T06:04:12;96149.44;;;21.63;36.40
44751;BME280;30477;48.224;11.470;2023-06-04T06:06:38;96149.84;;;21.26;35.65
44751;BME280;30477;48.224;11.470;2023-06-04T06:09:04;96146.03;;;21.42;34.71
44751;BME280;30477;48.224;11.470;2023-06-04T06:11:30;96148.44;;;21.31;35.41
44751;BME280;30477;48.224;11.470;2023-06-04T06:13:56;96149.06;;;21.26;35.30
44751;BME280;30477;48.224;11.470;2023-06-04T06:16:21;96151.13;;;21.11;35.09
44751;BME280;30477;48.224;11.470;2023-06-04T06:18:49;96149.69;;;20.88;35.58
44751;BME280;30477;48.224;11.470;2023-06-04T06:21:14;96156.38;;;21.11;35.25
44751;BME280;30477;48.224;11.470;2023-06-04T06:23:40;96163.78;;;21.60;35.23
44751;BME280;30477;48.224;11.470;2023-06-04T06:26:06;96164.41;;;21.62;35.47
44751;BME280;30477;48.224;11.470;2023-06-04T06:28:34;96169.44;;;22.29;34.75
44751;BME280;30477;48.224;11.470;2023-06-04T06:31:01;96165.56;;;21.86;34.44
44751;BME280;30477;48.224;11.470;2023-06-04T06:33:26;96160.06;;;21.95;34.11
44751;BME280;30477;48.224;11.470;2023-06-04T06:35:53;96164.41;;;22.14;34.17
44751;BME280;30477;48.224;11.470;2023-06-04T06:38:18;96163.72;;;22.70;34.77
44751;BME280;30477;48.224;11.470;2023-06-04T06:40:44;96163.47;;;23.47;33.20
44751;BME280;30477;48.224;11.470;2023-06-04T06:43:09;96162.84;;;23.52;32.88
44751;BME280;30477;48.224;11.470;2023-06-04T06:45:36;96166.13;;;23.29;32.29
44751;BME280;30477;48.224;11.470;2023-06-04T06:48:01;96170.38;;;23.48;32.93
44751;BME280;30477;48.224;11.470;2023-06-04T06:50:26;96163.50;;;24.03;31.23
44751;BME280;30477;48.224;11.470;2023-06-04T06:52:52;96170.81;;;23.27;31.32
44751;BME280;30477;48.224;11.470;2023-06-04T06:55:17;96170.22;;;23.25;31.48
44751;BME280;30477;48.224;11.470;2023-06-04T06:57:43;96174.59;;;23.13;31.46
44751;BME280;30477;48.224;11.470;2023-06-04T07:00:09;96170.84;;;23.20;31.38
44751;BME280;30477;48.224;11.470;2023-06-04T07:02:34;96171.25;;;23.42;32.39
44751;BME280;30477;48.224;11.470;2023-06-04T07:04:59;96167.88;;;23.35;31.93
44751;BME280;30477;48.224;11.470;2023-06-04T07:07:25;96166.47;;;23.95;31.49
44751;BME280;30477;48.224;11.470;2023-06-04T07:09:50;96161.59;;;23.91;30.37
44751;BME280;30477;48.224;11.470;2023-06-04T07:12:15;96165.03;;;23.74;31.38
44751;BME280;30477;48.224;11.470;2023-06-04T07:14:42;96155.72;;;24.08;31.67
44751;BME280;30477;48.224;11.470;2023-06-04T07:17:07;96165.66;;;24.24;31.23
44751;BME280;30477;48.224;11.470;2023-06-04T07:19:32;96161.38;;;23.93;31.11
44751;BME280;30477;48.224;11.470;2023-06-04T07:21:58;96165.97;;;24.16;31.24
44751;BME280;30477;48.224;11.470;2023-06-04T07:24:23;96163.50;;;24.33;30.06
44751;BME280;30477;48.224;11.470;2023-06-04T07:26:48;96163.81;;;23.76;31.47
44751;BME280;30477;48.224;11.470;2023-06-04T07:29:14;96153.53;;;24.05;31.40
44751;BME280;30477;48.224;11.470;2023-06-04T07:31:40;96156.72;;;24.25;32.23
44751;BME280;30477;48.224;11.470;2023-06-04T07:34:05;96161.66;;;24.52;32.37
44751;BME280;30477;48.224;11.470;2023-06-04T07:36:30;96156.78;;;25.85;31.25
44751;BME280;30477;48.224;11.470;2023-06-04T07:38:57;96157.19;;;25.54;30.51
44751;BME280;30477;48.224;11.470;2023-06-04T07:41:23;96160.84;;;24.94;30.19
44751;BME280;30477;48.224;11.470;2023-06-04T07:43:48;96158.47;;;24.62;30.35
44751;BME280;30477;48.224;11.470;2023-06-04T07:46:14;96157.63;;;24.01;30.74
44751;BME280;30477;48.224;11.470;2023-06-04T07:48:43;96156.00;;;24.00;31.68
44751;BME280;30477;48.224;11.470;2023-06-04T07:51:09;96159.47;;;25.15;31.42
44751;BME280;30477;48.224;11.470;2023-06-04T07:53:34;96163.75;;;25.51;29.77
44751;BME280;30477;48.224;11.470;2023-06-04T07:56:01;96162.53;;;24.88;30.74
44751;BME280;30477;48.224;11.470;2023-06-04T07:58:26;96159.44;;;25.85;30.52
44751;BME280;30477;48.224;11.470;2023-06-04T08:00:53;96159.28;;;27.24;29.64
44751;BME280;30477;48.224;11.470;2023-06-04T08:03:18;96164.25;;;27.37;28.10
44751;BME280;30477;48.224;11.470;2023-06-04T08:05:45;96156.16;;;26.19;28.29
44751;BME280;30477;48.224;11.470;2023-06-04T08:08:11;96164.97;;;25.96;29.95
44751;BME280;30477;48.224;11.470;2023-06-04T08:10:36;96160.84;;;26.45;30.17
44751;BME280;30477;48.224;11.470;2023-06-04T08:13:01;96154.53;;;27.65;28.63
44751;BME280;30477;48.224;11.470;2023-06-04T08:15:27;96154.25;;;27.44;27.80
44751;BME280;30477;48.224;11.470;2023-06-04T08:17:52;96152.56;;;26.70;27.98
44751;BME280;30477;48.224;11.470;2023-06-04T08:20:18;96158.16;;;26.28;28.47
44751;BME280;30477;48.224;11.470;2023-06-04T08:22:43;96154.53;;;26.46;28.21
44751;BME280;30477;48.224;11.470;2023-06-04T08:25:09;96153.47;;;27.27;28.52
44751;BME280;30477;48.224;11.470;2023-06-04T08:27:34;96153.72;;;26.46;27.91
44751;BME280;30477;48.224;11.470;2023-06-04T08:30:00;96156.63;;;26.04;29.39
44751;BME280;30477;48.224;11.470;2023-06-04T08:32:26;96159.00;;;25.65;28.91
44751;BME280;30477;48.224;11.470;2023-06-04T08:34:51;96162.66;;;25.87;28.76
44751;BME280;30477;48.224;11.470;2023-06-04T08:37:17;96159.47;;;25.62;29.34
44751;BME280;30477;48.224;11.470;2023-06-04T08:39:43;96159.94;;;25.59;29.48
44751;BME280;30477;48.224;11.470;2023-06-04T08:42:15;96156.97;;;25.43;29.71
44751;BME280;30477;48.224;11.470;2023-06-04T08:44:46;96154.50;;;26.18;29.69
44751;BME280;30477;48.224;11.470;2023-06-04T08:47:15;96155.22;;;25.72;29.02
44751;BME280;30477;48.224;11.470;2023-06-04T08:49:44;96156.81;;;26.14;28.53
44751;BME280;30477;48.224;11.470;2023-06-04T08:52:13;96162.19;;;26.31;28.09
44751;BME280;30477;48.224;11.470;2023-06-04T08:54:38;96157.59;;;26.26;28.64
44751;BME280;30477;48.224;11.470;2023-06-04T08:57:04;96150.28;;;26.62;28.33
44751;BME280;30477;48.224;11.470;2023-06-04T08:59:30;96152.50;;;27.33;27.38
44751;BME280;30477;48.224;11.470;2023-06-04T09:01:56;96150.09;;;27.92;27.54
44751;BME280;30477;48.224;11.470;2023-06-04T09:04:22;96147.75;;;27.01;26.56
44751;BME280;30477;48.224;11.470;2023-06-04T09:06:48;96154.09;;;26.83;26.11
44751;BME280;30477;48.224;11.470;2023-06-04T09:09:14;96159.47;;;26.14;26.03
44751;BME280;30477;48.224;11.470;2023-06-04T09:11:54;96144.75;;;26.06;26.59
44751;BME280;30477;48.224;11.470;2023-06-04T09:14:20;96151.63;;;26.19;26.04
44751;BME280;30477;48.224;11.470;2023-06-04T09:16:52;96156.31;;;26.00;26.53
44751;BME280;30477;48.224;11.470;2023-06-04T09:19:20;96157.66;;;26.15;27.76
44751;BME280;30477;48.224;11.470;2023-06-04T09:24:16;96163.59;;;25.81;26.76
44751;BME280;30477;48.224;11.470;2023-06-04T09:26:41;96157.78;;;26.08;26.25
44751;BME280;30477;48.224;11.470;2023-06-04T09:29:06;96153.53;;;26.07;26.31
44751;BME280;30477;48.224;11.470;2023-06-04T09:31:32;96156.50;;;26.10;26.56
44751;BME280;30477;48.224;11.470;2023-06-04T09:34:03;96163.34;;;25.95;26.57
44751;BME280;30477;48.224;11.470;2023-06-04T09:36:35;96149.75;;;25.79;27.12
44751;BME280;30477;48.224;11.470;2023-06-04T09:39:15;96151.50;;;25.62;27.42
44751;BME280;30477;48.224;11.470;2023-06-04T09:41:41;96145.91;;;25.46;27.32
44751;BME280;30477;48.224;11.470;2023-06-04T09:44:06;96156.34;;;25.18;28.08
44751;BME280;30477;48.224;11.470;2023-06-04T09:46:36;96146.81;;;25.17;26.82
44751;BME280;30477;48.224;11.470;2023-06-04T09:49:03;96149.94;;;24.60;28.10
44751;BME280;30477;48.224;11.470;2023-06-04T09:51:29;96151.88;;;24.22;28.26
44751;BME280;30477;48.224;11.470;2023-06-04T09:53:59;96142.34;;;24.33;29.01
44751;BME280;30477;48.224;11.470;2023-06-04T09:56:25;96155.97;;;24.18;28.80
44751;BME280;30477;48.224;11.470;2023-06-04T09:58:57;96151.31;;;24.02;28.32
44751;BME280;30477;48.224;11.470;2023-06-04T10:01:26;96141.91;;;24.06;29.72
44751;BME280;30477;48.224;11.470;2023-06-04T10:03:52;96146.50;;;23.80;28.58
44751;BME280;30477;48.224;11.470;2023-06-04T10:06:19;96147.09;;;23.39;28.90
44751;BME280;30477;48.224;11.470;2023-06-04T10:08:49;96152.19;;;23.59;30.15
44751;BME280;30477;48.224;11.470;2023-06-04T10:11:26;96147.88;;;23.83;29.60
44751;BME280;30477;48.224;11.470;2023-06-04T10:14:03;96143.88;;;23.37;30.51
44751;BME280;30477;48.224;11.470;2023-06-04T10:16:32;96146.16;;;23.51;30.51
44751;BME280;30477;48.224;11.470;2023-06-04T10:18:59;96152.19;;;22.90;29.98
44751;BME280;30477;48.224;11.470;2023-06-04T10:21:26;96148.25;;;22.99;31.12
44751;BME280;30477;48.224;11.470;2023-06-04T10:23:51;96147.09;;;22.95;30.45
44751;BME280;30477;48.224;11.470;2023-06-04T10:26:17;96146.81;;;23.03;30.53
44751;BME280;30477;48.224;11.470;2023-06-04T10:28:43;96149.41;;;22.85;31.64
44751;BME280;30477;48.224;11.470;2023-06-04T10:31:09;96146.69;;;22.92;32.71
44751;BME280;30477;48.224;11.470;2023-06-04T10:33:34;96151.50;;;23.01;32.48
44751;BME280;30477;48.224;11.470;2023-06-04T10:36:18;96157.19;;;22.98;31.89
44751;BME280;30477;48.224;11.470;2023-06-04T10:38:49;96154.50;;;22.80;32.21
44751;BME280;30477;48.224;11.470;2023-06-04T10:41:17;96153.00;;;23.16;33.16
44751;BME280;30477;48.224;11.470;2023-06-04T10:43:45;96152.34;;;23.02;32.50
44751;BME280;30477;48.224;11.470;2023-06-04T10:46:18;96161.44;;;22.99;31.75
44751;BME280;30477;48.224;11.470;2023-06-04T10:49:00;96153.81;;;22.66;30.92
44751;BME280;30477;48.224;11.470;2023-06-04T10:51:32;96154.53;;;22.48;30.85
44751;BME280;30477;48.224;11.470;2023-06-04T10:54:00;96156.06;;;22.31;31.23
44751;BME280;30477;48.224;11.470;2023-06-04T10:56:30;96145.16;;;22.14;31.38
44751;BME280;30477;48.224;11.470;2023-06-04T10:59:00;96142.63;;;22.32;31.54
44751;BME280;30477;48.224;11.470;2023-06-04T11:01:29;96130.16;;;22.78;31.96
44751;BME280;30477;48.224;11.470;2023-06-04T11:03:55;96142.69;;;22.82;31.86
44751;BME280;30477;48.224;11.470;2023-06-04T11:06:21;96140.75;;;22.46;31.65
44751;BME280;30477;48.224;11.470;2023-06-04T11:08:47;96143.56;;;22.51;33.15
44751;BME280;30477;48.224;11.470;2023-06-04T11:11:14;96135.22;;;22.79;34.20
44751;BME280;30477;48.224;11.470;2023-06-04T11:13:40;96146.31;;;22.88;32.85
44751;BME280;30477;48.224;11.470;2023-06-04T11:16:16;96139.63;;;22.60;32.74
44751;BME280;30477;48.224;11.470;2023-06-04T11:18:42;96127.03;;;22.62;33.11
44751;BME280;30477;48.224;11.470;2023-06-04T11:21:07;96133.44;;;22.73;32.72
44751;BME280;30477;48.224;11.470;2023-06-04T11:23:36;96126.66;;;22.59;31.91
44751;BME280;30477;48.224;11.470;2023-06-04T11:26:02;96139.44;;;22.55;30.83
44751;BME280;30477;48.224;11.470;2023-06-04T11:28:27;96139.44;;;22.23;31.20
44751;BME280;30477;48.224;11.470;2023-06-04T11:31:00;96143.94;;;22.16;32.77
44751;BME280;30477;48.224;11.470;2023-06-04T11:33:28;96133.63;;;22.08;33.11
44751;BME280;30477;48.224;11.470;2023-06-04T11:35:53;96140.28;;;22.10;33.83
44751;BME280;30477;48.224;11.470;2023-06-04T11:38:19;96129.44;;;22.32;33.99
44751;BME280;30477;48.224;11.470;2023-06-04T11:40:55;96129.81;;;22.67;33.91
44751;BME280;30477;48.224;11.470;2023-06-04T11:43:20;96122.84;;;22.80;34.13
44751;BME280;30477;48.224;11.470;2023-06-04T11:45:46;96123.94;;;22.65;33.57
44751;BME280;30477;48.224;11.470;2023-06-04T11:48:11;96125.75;;;22.40;33.36
44751;BME280;30477;48.224;11.470;2023-06-04T11:50:37;96115.59;;;22.43;33.57
44751;BME280;30477;48.224;11.470;2023-06-04T11:53:03;96121.03;;;22.48;34.55
44751;BME280;30477;48.224;11.470;2023-06-04T11:55:29;96121.22;;;22.54;34.53
44751;BME280;30477;48.224;11.470;2023-06-04T11:57:55;96120.41;;;22.15;33.39
44751;BME280;30477;48.224;11.470;2023-06-04T12:00:21;96112.88;;;22.18;34.76
44751;BME280;30477;48.224;11.470;2023-06-04T12:02:54;96116.91;;;22.27;34.63
44751;BME280;30477;48.224;11.470;2023-06-04T12:05:22;96111.06;;;22.50;34.40
44751;BME280;30477;48.224;11.470;2023-06-04T12:07:49;96114.94;;;22.48;34.69
44751;BME280;30477;48.224;11.470;2023-06-04T12:10:19;96109.13;;;22.39;32.91
44751;BME280;30477;48.224;11.470;2023-06-04T12:12:45;96109.44;;;22.18;32.11
44751;BME280;30477;48.224;11.470;2023-06-04T12:15:11;96112.28;;;22.23;32.35
44751;BME280;30477;48.224;11.470;2023-06-04T12:17:37;96110.03;;;22.20;31.88
44751;BME280;30477;48.224;11.470;2023-06-04T12:20:03;96111.94;;;22.06;31.43
44751;BME280;30477;48.224;11.470;2023-06-04T12:22:30;96110.66;;;22.15;31.87
44751;BME280;30477;48.224;11.470;2023-06-04T12:24:56;96109.00;;;22.27;32.34
44751;BME280;30477;48.224;11.470;2023-06-04T12:27:24;96104.50;;;22.35;32.60
44751;BME280;30477;48.224;11.470;2023-06-04T12:29:57;96099.13;;;22.48;33.00
44751;BME280;30477;48.224;11.470;2023-06-04T12:32:23;96103.56;;;22.54;33.51
44751;BME280;30477;48.224;11.470;2023-06-04T12:34:50;96103.59;;;22.47;32.93
44751;BME280;30477;48.224;11.470;2023-06-04T12:37:16;96107.75;;;22.37;32.79
44751;BME280;30477;48.224;11.470;2023-06-04T12:39:41;96104.50;;;22.35;33.82
44751;BME280;30477;48.224;11.470;2023-06-04T12:42:08;96104.38;;;22.23;32.30
44751;BME280;30477;48.224;11.470;2023-06-04T12:44:40;96109.66;;;22.16;32.20
44751;BME280;30477;48.224;11.470;2023-06-04T12:47:07;96103.63;;;22.09;31.63
44751;BME280;30477;48.224;11.470;2023-06-04T12:49:32;96103.94;;;22.19;31.70
44751;BME280;30477;48.224;11.470;2023-06-04T12:51:58;96103.13;;;22.19;31.60
44751;BME280;30477;48.224;11.470;2023-06-04T12:54:24;96097.06;;;22.18;31.88
44751;BME280;30477;48.224;11.470;2023-06-04T12:56:49;96098.19;;;22.36;33.80